Time;durP1;ratioP1;P1;durP2;ratioP2;P2;SDS_P1;SDS_P2;PMS_P1;PMS_P2;Temp;Humidity;BMP_temperature;BMP_pressure;BME280_temperature;BME280_humidity;BME280_pressure;Samples;Min_cycle;Max_cycle;Signal;HPM_P1;HPM_P2
2021/06/08 14:10:57;;;;;;;40.10;35.40;;;25.90;42.80;;;;;;5120007;27;20386;-66
2021/06/08 14:13:30;;;;;;;39.55;35.85;;;25.10;42.90;;;;;;5091030;28;20016;-65
2021/06/08 14:15:56;;;;;;;40.88;36.97;;;24.70;43.50;;;;;;5096876;28;20017;-65
2021/06/08 14:18:21;;;;;;;41.90;37.88;;;24.50;44.00;;;;;;5100787;28;20016;-65
2021/06/08 14:20:47;;;;;;;40.63;36.63;;;24.40;44.10;;;;;;5089596;28;20510;-64
2021/06/08 14:23:13;;;;;;;41.17;36.58;;;24.30;44.70;;;;;;5091397;28;20028;-65
2021/06/08 14:25:38;;;;;;;39.17;34.38;;;24.20;44.80;;;;;;5073950;28;20130;-63
2021/06/08 14:28:04;;;;;;;37.03;33.17;;;24.10;45.40;;;;;;5081565;28;20031;-65
2021/06/08 14:30:30;;;;;;;37.95;34.03;;;24.10;45.00;;;;;;5082525;28;20468;-64
2021/06/08 14:32:56;;;;;;;35.90;32.40;;;24.00;45.10;;;;;;5064790;28;20031;-64
2021/06/08 14:35:21;;;;;;;34.17;30.92;;;24.00;44.70;;;;;;5045713;28;20032;-65
2021/06/08 14:37:47;;;;;;;34.55;31.05;;;24.00;44.30;;;;;;5094455;28;20035;-67
2021/06/08 14:40:13;;;;;;;34.97;31.33;;;24.00;44.70;;;;;;5090151;28;20426;-65
2021/06/08 14:42:38;;;;;;;33.45;30.10;;;24.00;45.10;;;;;;5068698;28;20098;-68
2021/06/08 14:45:05;;;;;;;31.40;28.10;;;24.10;45.40;;;;;;5085493;28;20063;-65
2021/06/08 14:47:31;;;;;;;31.48;28.58;;;24.10;45.30;;;;;;5089021;28;20028;-65
2021/06/08 14:49:57;;;;;;;34.40;30.65;;;24.10;45.40;;;;;;5090430;28;20424;-65
2021/06/08 14:52:22;;;;;;;29.77;26.75;;;24.10;45.40;;;;;;5073640;28;20021;-65
2021/06/08 14:54:48;;;;;;;29.30;26.80;;;24.10;45.30;;;;;;5080177;28;20035;-65
2021/06/08 14:57:13;;;;;;;32.45;29.25;;;24.00;45.50;;;;;;5092779;27;20067;-65
2021/06/08 14:59:39;;;;;;;28.38;25.73;;;24.10;45.90;;;;;;5068776;28;20025;-66
2021/06/08 15:02:05;;;;;;;29.05;26.33;;;24.10;45.90;;;;;;5062652;28;20107;-65
2021/06/08 15:04:30;;;;;;;30.70;27.40;;;24.10;46.00;;;;;;5079715;28;20119;-65
2021/06/08 15:06:57;;;;;;;32.58;29.13;;;24.00;46.40;;;;;;5069572;28;20029;-66
2021/06/08 15:09:24;;;;;;;35.20;31.42;;;24.00;46.40;;;;;;5089660;28;20029;-65
2021/06/08 15:11:49;;;;;;;43.03;31.75;;;24.00;46.80;;;;;;5101138;28;20016;-64
2021/06/08 15:14:15;;;;;;;38.28;31.95;;;24.10;46.70;;;;;;5090840;28;20066;-68
2021/06/08 15:16:40;;;;;;;33.67;29.00;;;24.10;47.10;;;;;;5079701;28;20473;-67
2021/06/08 15:19:06;;;;;;;31.65;28.17;;;24.10;46.70;;;;;;5052034;28;20035;-66
2021/06/08 15:21:32;;;;;;;30.50;27.50;;;24.10;46.70;;;;;;5059165;28;20464;-69
2021/06/08 15:23:57;;;;;;;30.75;27.63;;;24.10;46.70;;;;;;5083859;28;20119;-65
2021/06/08 15:26:23;;;;;;;29.70;26.60;;;24.20;46.80;;;;;;5039055;28;20116;-68
2021/06/08 15:28:48;;;;;;;28.23;25.63;;;24.10;46.40;;;;;;5073745;28;20031;-65
2021/06/08 15:31:14;;;;;;;27.90;25.20;;;24.10;46.40;;;;;;5074051;28;20033;-64
2021/06/08 15:33:40;;;;;;;27.52;24.80;;;24.10;46.40;;;;;;5073300;28;20036;-65
2021/06/08 15:36:06;;;;;;;27.73;25.05;;;24.10;46.80;;;;;;5056392;28;20016;-66
2021/06/08 15:38:32;;;;;;;27.95;24.98;;;24.20;46.80;;;;;;5039270;28;20017;-66
2021/06/08 15:40:58;;;;;;;28.80;25.83;;;24.20;46.60;;;;;;5075485;28;20055;-65
2021/06/08 15:43:23;;;;;;;27.17;24.80;;;24.20;46.10;;;;;;5063396;28;20056;-66
2021/06/08 15:45:49;;;;;;;27.77;25.05;;;24.20;46.40;;;;;;5075560;28;20098;-64
2021/06/08 15:48:15;;;;;;;28.20;25.55;;;24.20;45.70;;;;;;5060021;28;20519;-65
2021/06/08 15:50:41;;;;;;;26.20;23.73;;;24.20;45.90;;;;;;5061988;28;20052;-66
2021/06/08 15:53:07;;;;;;;26.63;24.00;;;24.20;45.80;;;;;;5057274;28;20538;-66
2021/06/08 15:55:33;;;;;;;25.92;23.73;;;24.20;46.40;;;;;;5056354;28;20031;-66
2021/06/08 15:57:59;;;;;;;25.13;22.90;;;24.20;46.10;;;;;;5069655;28;20061;-64
2021/06/08 16:00:24;;;;;;;25.05;22.75;;;24.20;45.80;;;;;;5064489;28;20554;-65
2021/06/08 16:02:50;;;;;;;24.30;22.25;;;24.20;45.80;;;;;;5080724;28;20032;-64
2021/06/08 16:05:15;;;;;;;22.95;20.85;;;24.30;45.70;;;;;;5079664;28;20027;-64
2021/06/08 16:07:41;;;;;;;22.48;20.38;;;24.30;45.50;;;;;;5077638;28;20035;-64
2021/06/08 16:10:07;;;;;;;22.58;20.27;;;24.20;45.00;;;;;;5039077;28;20110;-66
2021/06/08 16:12:33;;;;;;;21.02;18.92;;;24.20;45.40;;;;;;5056981;28;20025;-65
2021/06/08 16:14:58;;;;;;;19.02;17.23;;;24.20;45.10;;;;;;5059613;28;20031;-65
2021/06/08 16:17:24;;;;;;;22.20;17.90;;;24.20;45.30;;;;;;5037234;28;20023;-65
2021/06/08 16:19:50;;;;;;;28.25;20.08;;;24.20;45.30;;;;;;5073921;28;20108;-67
2021/06/08 16:22:15;;;;;;;20.02;18.13;;;24.30;45.40;;;;;;5073850;28;20025;-64
2021/06/08 16:24:41;;;;;;;19.60;17.70;;;24.30;45.50;;;;;;5071206;28;20064;-66
2021/06/08 16:27:07;;;;;;;22.10;16.58;;;24.30;45.70;;;;;;5066517;28;20028;-66
2021/06/08 16:29:32;;;;;;;20.55;18.52;;;24.30;45.80;;;;;;5055886;28;20032;-66
2021/06/08 16:31:58;;;;;;;20.45;18.60;;;24.30;46.00;;;;;;5073444;28;20117;-65
2021/06/08 16:34:24;;;;;;;19.63;16.77;;;24.30;45.90;;;;;;5086713;28;20032;-66
2021/06/08 16:36:51;;;;;;;18.13;16.27;;;24.30;45.80;;;;;;5077310;28;20051;-65
2021/06/08 16:39:18;;;;;;;17.02;15.57;;;24.30;46.70;;;;;;5059767;28;20024;-66
2021/06/08 16:41:44;;;;;;;16.83;15.43;;;24.30;47.00;;;;;;5056900;28;20043;-65
2021/06/08 16:44:10;;;;;;;17.65;15.82;;;24.30;47.10;;;;;;5065283;28;20036;-64
2021/06/08 16:46:36;;;;;;;18.38;16.77;;;24.30;47.30;;;;;;5055633;28;20113;-65
2021/06/08 16:49:02;;;;;;;17.08;15.38;;;24.30;46.60;;;;;;5055228;28;20032;-65
2021/06/08 16:54:08;;;;;;;17.13;15.60;;;24.30;47.10;;;;;;5093023;28;20087;-66
2021/06/08 16:56:34;;;;;;;16.52;14.93;;;24.30;48.10;;;;;;5056979;28;20027;-66
2021/06/08 16:59:00;;;;;;;18.02;16.13;;;24.30;46.80;;;;;;5056761;28;20101;-66
2021/06/08 17:01:25;;;;;;;17.35;15.85;;;24.30;47.10;;;;;;5071990;28;20025;-66
2021/06/08 17:03:51;;;;;;;17.23;15.32;;;24.30;46.20;;;;;;5074171;28;20103;-66
2021/06/08 17:06:16;;;;;;;27.27;13.80;;;24.30;46.10;;;;;;5059507;28;20028;-71
2021/06/08 17:08:42;;;;;;;162.25;40.10;;;24.30;46.50;;;;;;5079609;28;20032;-67
2021/06/08 17:11:08;;;;;;;98.82;28.42;;;24.30;44.40;;;;;;5052541;28;20028;-69
2021/06/08 17:13:34;;;;;;;87.53;26.20;;;24.30;45.60;;;;;;5039734;28;20021;-69
2021/06/08 17:15:59;;;;;;;70.53;25.15;;;24.30;44.80;;;;;;5027606;28;20025;-70
2021/06/08 17:18:28;;;;;;;79.65;24.85;;;24.30;44.80;;;;;;5039184;28;20023;-69
2021/06/08 17:20:55;;;;;;;78.30;23.55;;;24.30;44.90;;;;;;5047644;28;20096;-70
2021/06/08 17:23:21;;;;;;;87.88;25.35;;;24.30;45.30;;;;;;5056203;28;20035;-69
2021/06/08 17:25:46;;;;;;;60.55;23.98;;;24.30;45.50;;;;;;5054904;28;20033;-69
2021/06/08 17:28:12;;;;;;;65.07;22.83;;;24.30;45.80;;;;;;5071913;28;20078;-69
2021/06/08 17:30:39;;;;;;;60.70;21.98;;;24.30;45.90;;;;;;5067675;28;20039;-68
2021/06/08 17:33:04;;;;;;;49.35;19.90;;;24.30;46.10;;;;;;5074230;28;20024;-69
2021/06/08 17:35:31;;;;;;;20.20;13.52;;;24.30;46.70;;;;;;5052413;28;20039;-70
2021/06/08 17:37:59;;;;;;;14.35;12.80;;;24.20;43.70;;;;;;5072430;28;20016;-71
2021/06/08 17:40:26;;;;;;;14.40;11.13;;;24.10;43.60;;;;;;5052450;28;20032;-69
2021/06/08 17:42:51;;;;;;;15.40;13.10;;;24.00;43.20;;;;;;5065695;28;20043;-68
2021/06/08 17:45:17;;;;;;;14.90;12.63;;;24.00;44.20;;;;;;5073570;28;20029;-69
2021/06/08 17:47:42;;;;;;;13.45;11.85;;;24.00;44.60;;;;;;5072934;28;20502;-69
2021/06/08 17:50:09;;;;;;;12.77;11.48;;;24.00;44.60;;;;;;5071485;28;20484;-68
2021/06/08 17:52:35;;;;;;;13.25;11.40;;;24.00;44.70;;;;;;5052527;28;20023;-70
2021/06/08 17:55:01;;;;;;;13.15;11.77;;;24.00;45.00;;;;;;5040821;28;20025;-69
2021/06/08 17:57:28;;;;;;;11.23;10.32;;;24.00;45.50;;;;;;5066589;28;20206;-68
2021/06/08 17:59:53;;;;;;;13.13;11.70;;;23.90;45.20;;;;;;5036309;28;20037;-67
2021/06/08 18:02:19;;;;;;;13.73;12.38;;;23.90;45.30;;;;;;5052490;28;20391;-69
2021/06/08 18:04:45;;;;;;;15.10;12.05;;;23.90;45.70;;;;;;5088324;28;20093;-68
2021/06/08 18:07:11;;;;;;;17.10;11.80;;;23.90;45.70;;;;;;5064249;28;20025;-69
2021/06/08 18:09:36;;;;;;;13.40;11.27;;;23.90;46.30;;;;;;5059688;28;20477;-68
2021/06/08 18:12:02;;;;;;;12.35;11.15;;;23.80;46.60;;;;;;5055468;28;20032;-69
2021/06/08 18:14:28;;;;;;;14.77;10.93;;;23.80;46.70;;;;;;5071571;28;20044;-68
2021/06/08 18:16:57;;;;;;;13.13;11.73;;;23.80;46.80;;;;;;5072158;28;20020;-70
2021/06/08 18:19:38;;;;;;;14.43;12.48;;;23.70;47.00;;;;;;5073420;28;20016;-70
2021/06/08 18:22:08;;;;;;;11.40;10.27;;;23.70;47.70;;;;;;5070885;28;20082;-71
2021/06/08 18:24:34;;;;;;;11.70;10.52;;;23.70;46.70;;;;;;5053649;28;20036;-70
2021/06/08 18:27:00;;;;;;;12.63;11.35;;;23.70;46.50;;;;;;5053728;28;20029;-70
2021/06/08 18:29:25;;;;;;;11.88;10.68;;;23.70;46.80;;;;;;5071894;28;20029;-69
2021/06/08 18:31:51;;;;;;;17.63;10.95;;;23.60;46.30;;;;;;5071588;28;20016;-70
2021/06/08 18:34:16;;;;;;;13.63;10.55;;;23.60;46.00;;;;;;5070917;28;20028;-69
2021/06/08 18:36:42;;;;;;;13.15;10.30;;;23.60;46.80;;;;;;5071684;28;20020;-69
2021/06/08 18:39:08;;;;;;;13.15;11.07;;;23.60;48.40;;;;;;5038278;28;20081;-69
2021/06/08 18:41:33;;;;;;;14.80;11.65;;;23.50;49.10;;;;;;5037909;28;20059;-69
2021/06/08 18:43:59;;;;;;;15.90;11.57;;;23.50;49.50;;;;;;5055213;28;20037;-70
2021/06/08 18:46:25;;;;;;;12.98;11.50;;;23.40;49.90;;;;;;5071565;28;20465;-69
2021/06/08 18:48:51;;;;;;;13.05;10.43;;;23.50;50.70;;;;;;5071254;28;20033;-69
2021/06/08 18:51:17;;;;;;;12.55;10.57;;;23.50;50.30;;;;;;5071860;28;20024;-68
2021/06/08 18:53:43;;;;;;;14.02;11.35;;;23.40;50.50;;;;;;5076734;28;20029;-68
2021/06/08 18:56:16;;;;;;;11.52;10.43;;;23.30;50.80;;;;;;5048178;28;20020;-69
2021/06/08 18:58:42;;;;;;;18.67;14.88;;;23.30;50.70;;;;;;5057059;28;20021;-68
2021/06/08 19:01:08;;;;;;;34.97;27.33;;;23.30;51.00;;;;;;5041341;28;20032;-69
